createdAt,value
2019-02-27T00:01:00.880Z,21.40
2019-02-27T00:03:06.998Z,21.97
2019-02-27T00:05:11.547Z,22.37
2019-02-27T00:07:15.900Z,22.47
2019-02-27T00:09:20.352Z,22.70
2019-02-27T00:11:24.203Z,23.00
2019-02-27T00:13:29.031Z,20.77
2019-02-27T00:15:33.140Z,20.90
2019-02-27T00:17:37.315Z,23.17
2019-02-27T00:19:41.163Z,23.77
2019-02-27T00:21:46.151Z,22.30
2019-02-27T00:23:50.594Z,24.17
2019-02-27T00:25:54.850Z,22.77
2019-02-27T00:27:59.178Z,24.63
2019-02-27T00:30:05.580Z,24.10
2019-02-27T00:32:10.120Z,22.87
2019-02-27T00:34:14.448Z,21.97
2019-02-27T00:36:18.271Z,24.10
2019-02-27T00:38:25.050Z,23.47
2019-02-27T00:40:28.351Z,23.33
2019-02-27T00:42:33.801Z,22.80
2019-02-27T00:44:38.511Z,24.30
2019-02-27T00:46:43.983Z,24.07
2019-02-27T00:48:48.522Z,24.40
2019-02-27T00:50:52.822Z,26.00
2019-02-27T00:52:57.347Z,23.17
2019-02-27T00:55:04.238Z,23.50
2019-02-27T00:57:07.450Z,23.07
2019-02-27T00:59:11.579Z,22.00
2019-02-27T01:01:15.783Z,22.53
2019-02-27T01:03:19.698Z,22.27
2019-02-27T01:05:24.307Z,25.27
2019-02-27T01:07:28.123Z,22.90
2019-02-27T01:09:32.601Z,23.87
2019-02-27T01:11:37.479Z,22.53
2019-02-27T01:13:41.623Z,24.60
2019-02-27T01:15:45.712Z,21.37
2019-02-27T01:17:50.054Z,22.40
2019-02-27T01:19:54.367Z,21.40
2019-02-27T01:21:58.731Z,22.60
2019-02-27T01:24:02.814Z,23.90
2019-02-27T01:26:06.759Z,21.10
2019-02-27T01:28:11.604Z,19.97
2019-02-27T01:30:16.759Z,20.90
2019-02-27T01:32:21.630Z,21.87
2019-02-27T01:34:26.328Z,20.00
2019-02-27T01:36:30.660Z,22.00
2019-02-27T01:38:37.646Z,17.13
2019-02-27T01:40:41.214Z,16.87
2019-02-27T01:42:45.341Z,17.60
2019-02-27T01:44:49.655Z,19.50
2019-02-27T01:46:54.641Z,20.50
2019-02-27T01:48:58.910Z,19.90
2019-02-27T01:51:03.022Z,21.83
2019-02-27T01:53:09.161Z,20.40
2019-02-27T01:55:13.153Z,19.50
2019-02-27T01:57:17.033Z,20.20
2019-02-27T01:59:21.419Z,20.40
2019-02-27T02:01:29.967Z,19.97
2019-02-27T02:03:31.647Z,21.23
2019-02-27T02:05:35.791Z,19.50
2019-02-27T02:07:40.790Z,21.10
2019-02-27T02:09:47.456Z,20.57
2019-02-27T02:11:51.599Z,22.07
2019-02-27T02:14:21.685Z,20.83
2019-02-27T02:16:34.401Z,23.00
2019-02-27T02:19:15.715Z,19.80
2019-02-27T02:21:52.820Z,20.03
2019-02-27T02:24:33.432Z,18.80
2019-02-27T02:26:51.165Z,21.77
2019-02-27T02:29:33.955Z,20.43
2019-02-27T02:31:46.304Z,20.07
2019-02-27T02:34:33.356Z,19.83
2019-02-27T02:37:05.583Z,20.87
2019-02-27T02:39:46.328Z,19.03
2019-02-27T02:42:16.882Z,18.23
2019-02-27T02:45:02.202Z,19.63
2019-02-27T02:47:30.313Z,19.97
2019-02-27T02:50:36.596Z,21.33
2019-02-27T02:53:13.019Z,19.97
2019-02-27T02:55:47.546Z,20.50
2019-02-27T02:58:02.639Z,19.57
2019-02-27T03:00:17.784Z,17.63
2019-02-27T03:03:15.025Z,19.77
2019-02-27T03:05:50.356Z,20.93
2019-02-27T03:08:08.508Z,18.60
2019-02-27T03:10:42.868Z,17.60
2019-02-27T03:13:41.629Z,17.90
2019-02-27T03:15:46.472Z,20.70
2019-02-27T03:18:29.617Z,20.93
2019-02-27T03:20:43.816Z,18.80
2019-02-27T03:23:18.193Z,20.00
2019-02-27T03:25:58.416Z,19.80
2019-02-27T03:28:31.760Z,20.50
2019-02-27T03:31:02.208Z,19.17
2019-02-27T03:33:27.094Z,22.87
2019-02-27T03:35:45.465Z,20.07
2019-02-27T03:38:23.841Z,21.37
2019-02-27T03:40:37.300Z,17.90
2019-02-27T03:43:28.351Z,19.67
2019-02-27T03:46:12.627Z,19.33
2019-02-27T03:48:53.171Z,19.93
2019-02-27T03:51:29.064Z,18.33
2019-02-27T03:53:54.082Z,20.40
2019-02-27T03:56:53.779Z,19.60
2019-02-27T03:59:34.056Z,19.43
2019-02-27T04:02:24.920Z,17.93
2019-02-27T04:04:53.149Z,19.97
2019-02-27T04:07:40.403Z,21.23
2019-02-27T04:09:44.477Z,20.03
2019-02-27T04:11:48.866Z,21.33
2019-02-27T04:13:53.112Z,20.07
2019-02-27T04:15:57.468Z,19.47
2019-02-27T04:18:00.256Z,20.87
2019-02-27T04:20:04.479Z,20.23
2019-02-27T04:22:09.308Z,20.50
2019-02-27T04:24:13.681Z,20.13
2019-02-27T04:26:19.382Z,21.13
2019-02-27T04:28:23.647Z,19.23
2019-02-27T04:30:27.796Z,24.30
2019-02-27T04:32:31.884Z,23.47
2019-02-27T04:34:36.507Z,21.00
2019-02-27T04:36:41.072Z,20.63
2019-02-27T04:38:44.984Z,20.00
2019-02-27T04:40:49.324Z,19.73
2019-02-27T04:42:54.310Z,20.90
2019-02-27T04:44:59.864Z,20.30
2019-02-27T04:47:04.563Z,20.43
2019-02-27T04:49:08.938Z,21.70
2019-02-27T04:51:16.871Z,21.37
2019-02-27T04:53:19.056Z,20.17
2019-02-27T04:55:23.235Z,18.53
2019-02-27T04:57:27.081Z,18.77
2019-02-27T04:59:30.971Z,18.50
2019-02-27T05:01:36.779Z,19.00
2019-02-27T05:03:42.003Z,20.67
2019-02-27T05:05:46.100Z,18.20
2019-02-27T05:07:54.061Z,18.43
2019-02-27T05:09:56.059Z,18.23
2019-02-27T05:12:00.507Z,19.00
2019-02-27T05:14:04.713Z,19.07
2019-02-27T05:16:08.867Z,20.60
2019-02-27T05:18:12.735Z,19.90
2019-02-27T05:20:16.587Z,20.30
2019-02-27T05:22:20.895Z,18.80
2019-02-27T05:24:25.411Z,18.70
2019-02-27T05:26:29.446Z,19.40
2019-02-27T05:28:34.958Z,19.43
2019-02-27T05:30:39.979Z,19.80
2019-02-27T05:32:44.055Z,18.80
2019-02-27T05:34:49.798Z,20.40
2019-02-27T05:36:53.779Z,19.07
2019-02-27T05:38:57.883Z,19.27
2019-02-27T05:41:02.423Z,19.57
2019-02-27T05:43:07.323Z,20.80
2019-02-27T05:45:12.366Z,20.13
2019-02-27T05:47:16.234Z,20.47
2019-02-27T05:49:21.108Z,17.17
2019-02-27T05:51:25.181Z,17.87
2019-02-27T05:53:29.727Z,17.83
2019-02-27T05:55:33.872Z,18.27
2019-02-27T05:57:38.199Z,18.53
2019-02-27T05:59:42.845Z,17.57
2019-02-27T06:01:47.495Z,19.40
2019-02-27T06:03:52.303Z,18.40
2019-02-27T06:05:57.083Z,17.53
2019-02-27T06:08:02.354Z,18.23
2019-02-27T06:10:08.291Z,19.00
2019-02-27T06:12:12.538Z,16.80
2019-02-27T06:14:21.149Z,16.83
2019-02-27T06:16:22.588Z,17.13
2019-02-27T06:18:26.519Z,18.77
2019-02-27T06:20:31.043Z,16.57
2019-02-27T06:22:35.441Z,16.80
2019-02-27T06:24:39.311Z,18.73
2019-02-27T06:26:43.550Z,17.20
2019-02-27T06:28:48.529Z,17.93
2019-02-27T06:30:52.468Z,17.87
2019-02-27T06:32:57.011Z,21.70
2019-02-27T06:35:01.315Z,24.87
2019-02-27T06:37:05.256Z,19.90
2019-02-27T06:39:09.595Z,20.07
2019-02-27T06:41:15.762Z,20.13
2019-02-27T06:43:20.151Z,18.30
2019-02-27T06:45:24.331Z,19.90
2019-02-27T06:47:28.639Z,18.40
2019-02-27T06:49:33.307Z,17.67
2019-02-27T06:51:37.804Z,19.77
2019-02-27T06:53:41.980Z,20.27
2019-02-27T06:55:46.601Z,19.23
2019-02-27T06:57:50.696Z,18.07
2019-02-27T06:59:59.400Z,21.27
2019-02-27T07:02:01.737Z,20.33
2019-02-27T07:04:08.116Z,19.47
2019-02-27T07:06:12.695Z,19.77
2019-02-27T07:08:16.815Z,20.37
2019-02-27T07:10:21.285Z,21.30
2019-02-27T07:12:25.876Z,27.70
2019-02-27T07:14:30.752Z,21.60
2019-02-27T07:16:35.124Z,18.87
2019-02-27T07:18:41.864Z,18.23
2019-02-27T07:20:45.496Z,18.10
2019-02-27T07:22:49.704Z,19.30
2019-02-27T07:24:53.969Z,19.90
2019-02-27T07:26:58.554Z,18.80
2019-02-27T07:29:02.457Z,19.87
2019-02-27T07:31:06.428Z,21.83
2019-02-27T07:33:10.529Z,18.37
2019-02-27T07:35:15.148Z,19.27
2019-02-27T07:37:19.263Z,19.70
2019-02-27T07:39:23.475Z,20.63
2019-02-27T07:41:27.543Z,18.73
2019-02-27T07:43:31.747Z,19.03
2019-02-27T07:45:35.855Z,19.30
2019-02-27T07:47:39.970Z,18.57
2019-02-27T07:49:44.368Z,20.33
2019-02-27T07:51:49.524Z,18.57
2019-02-27T07:53:54.553Z,19.00
2019-02-27T07:55:58.868Z,19.27
2019-02-27T07:58:03.238Z,19.07
2019-02-27T08:00:10.160Z,19.73
2019-02-27T08:02:14.552Z,17.87
2019-02-27T08:04:19.521Z,19.67
2019-02-27T08:06:24.204Z,18.50
2019-02-27T08:08:28.231Z,18.80
2019-02-27T08:10:36.708Z,19.10
2019-02-27T08:12:38.943Z,19.60
2019-02-27T08:14:43.687Z,18.23
2019-02-27T08:16:48.775Z,19.63
2019-02-27T08:18:52.864Z,20.40
2019-02-27T08:20:57.804Z,17.50
2019-02-27T08:23:01.971Z,19.03
2019-02-27T08:25:06.262Z,19.27
2019-02-27T08:27:10.387Z,19.13
2019-02-27T08:29:15.001Z,19.60
2019-02-27T08:31:19.163Z,19.20
2019-02-27T08:33:23.779Z,19.13
2019-02-27T08:35:28.048Z,20.33
2019-02-27T08:37:32.339Z,19.40
2019-02-27T08:39:36.414Z,19.50
2019-02-27T08:41:40.507Z,20.27
2019-02-27T08:43:44.348Z,18.00
2019-02-27T08:45:49.137Z,24.97
2019-02-27T08:47:55.588Z,19.17
2019-02-27T08:49:59.351Z,18.00
2019-02-27T08:52:04.268Z,19.43
2019-02-27T08:54:08.591Z,16.87
2019-02-27T08:56:12.952Z,18.30
2019-02-27T08:58:17.153Z,17.03
2019-02-27T09:00:23.286Z,17.50
2019-02-27T09:02:29.488Z,16.23
2019-02-27T09:04:33.555Z,16.70
2019-02-27T09:06:37.656Z,16.10
2019-02-27T09:08:44.066Z,16.87
2019-02-27T09:10:48.059Z,17.57
2019-02-27T09:12:52.285Z,17.53
2019-02-27T09:14:56.387Z,17.80
2019-02-27T09:17:00.718Z,14.13
2019-02-27T09:19:09.250Z,14.40
2019-02-27T09:21:10.559Z,16.90
2019-02-27T09:23:14.975Z,16.50
2019-02-27T09:25:23.572Z,17.83
2019-02-27T09:27:25.043Z,17.50
2019-02-27T09:29:29.964Z,16.40
2019-02-27T09:31:34.684Z,16.10
2019-02-27T09:33:39.411Z,15.70
2019-02-27T09:35:44.246Z,16.83
2019-02-27T09:37:51.343Z,13.80
2019-02-27T09:39:54.612Z,13.07
2019-02-27T09:41:58.828Z,18.47
2019-02-27T09:44:03.067Z,16.40
2019-02-27T09:46:07.048Z,16.43
2019-02-27T09:48:10.951Z,13.40
2019-02-27T09:50:31.184Z,12.00
2019-02-27T09:52:35.419Z,13.53
2019-02-27T09:54:39.812Z,14.83
2019-02-27T09:56:44.355Z,12.60
2019-02-27T09:58:48.543Z,11.53
2019-02-27T10:00:59.225Z,15.00
2019-02-27T10:03:01.773Z,13.97
2019-02-27T10:05:06.219Z,14.50
2019-02-27T10:07:10.442Z,9.40
2019-02-27T10:09:17.303Z,14.80
2019-02-27T10:11:22.422Z,14.60
2019-02-27T10:13:26.664Z,13.90
2019-02-27T10:15:30.901Z,14.43
2019-02-27T10:17:36.430Z,15.40
2019-02-27T10:19:41.432Z,13.20
2019-02-27T10:21:45.389Z,14.90
2019-02-27T10:23:49.438Z,16.63
2019-02-27T10:25:53.866Z,15.93
2019-02-27T10:28:03.376Z,15.50
2019-02-27T10:30:11.350Z,15.37
2019-02-27T10:32:10.397Z,14.83
2019-02-27T10:34:14.616Z,7.37
2019-02-27T10:36:20.116Z,15.87
2019-02-27T10:38:26.159Z,16.87
2019-02-27T10:40:29.903Z,16.97
2019-02-27T10:42:34.867Z,12.97
2019-02-27T10:44:38.694Z,17.87
2019-02-27T10:46:43.030Z,17.10
2019-02-27T10:48:48.036Z,12.07
2019-02-27T10:50:52.416Z,11.50
2019-02-27T10:52:56.746Z,14.97
2019-02-27T10:55:01.190Z,10.63
2019-02-27T10:57:06.040Z,14.60
2019-02-27T10:59:10.719Z,14.43
2019-02-27T11:01:14.944Z,14.13
2019-02-27T11:03:23.638Z,14.63
2019-02-27T11:05:28.289Z,12.83
2019-02-27T11:07:32.885Z,15.13
2019-02-27T11:09:38.356Z,12.10
2019-02-27T11:11:43.281Z,12.40
2019-02-27T11:13:51.413Z,12.87
2019-02-27T11:15:53.692Z,16.20
2019-02-27T11:17:57.952Z,16.30
2019-02-27T11:20:01.876Z,16.37
2019-02-27T11:22:06.251Z,14.67
2019-02-27T11:24:10.910Z,13.67
2019-02-27T11:26:15.299Z,14.90
2019-02-27T11:28:19.211Z,15.17
2019-02-27T11:30:25.564Z,14.50
2019-02-27T11:32:29.563Z,15.43
2019-02-27T11:34:33.391Z,12.20
2019-02-27T11:36:39.017Z,11.60
2019-02-27T11:38:42.937Z,17.27
2019-02-27T11:40:47.965Z,14.33
2019-02-27T11:42:52.510Z,11.97
2019-02-27T11:44:56.855Z,12.57
2019-02-27T11:47:01.143Z,11.70
2019-02-27T11:49:05.835Z,13.43
2019-02-27T11:51:10.594Z,16.87
2019-02-27T11:53:14.556Z,15.97
2019-02-27T11:55:18.629Z,16.77
2019-02-27T11:57:22.695Z,16.47
2019-02-27T11:59:26.803Z,16.27
2019-02-27T12:01:32.208Z,17.87
2019-02-27T12:03:36.150Z,17.23
2019-02-27T12:05:40.308Z,15.40
2019-02-27T12:07:44.391Z,15.87
2019-02-27T12:09:48.776Z,15.30
2019-02-27T12:11:53.173Z,15.50
2019-02-27T12:13:57.719Z,15.57
2019-02-27T12:16:02.063Z,13.67
2019-02-27T12:18:06.308Z,14.90
2019-02-27T12:20:10.679Z,16.40
2019-02-27T12:22:14.606Z,13.87
2019-02-27T12:24:19.619Z,16.00
2019-02-27T12:26:24.090Z,16.83
2019-02-27T12:28:28.463Z,13.30
2019-02-27T12:30:37.147Z,15.37
2019-02-27T12:32:39.087Z,14.70
2019-02-27T12:34:43.539Z,13.87
2019-02-27T12:36:49.976Z,16.17
2019-02-27T12:38:53.727Z,15.13
2019-02-27T12:40:58.523Z,13.77
2019-02-27T12:43:02.987Z,13.50
2019-02-27T12:45:09.649Z,14.87
2019-02-27T12:47:13.975Z,13.10
2019-02-27T12:49:20.160Z,14.70
2019-02-27T12:51:23.831Z,13.97
2019-02-27T12:53:28.251Z,12.07
2019-02-27T12:55:35.385Z,13.70
2019-02-27T12:57:38.471Z,14.80
2019-02-27T12:59:42.732Z,14.87
2019-02-27T13:01:50.706Z,11.67
2019-02-27T13:03:53.392Z,13.60
2019-02-27T13:05:58.198Z,14.10
2019-02-27T13:08:03.231Z,13.90
2019-02-27T13:10:09.339Z,13.00
2019-02-27T13:12:14.889Z,13.27
2019-02-27T13:14:19.248Z,14.20
2019-02-27T13:16:23.832Z,13.87
2019-02-27T13:18:31.532Z,13.17
2019-02-27T13:20:34.269Z,12.40
2019-02-27T13:22:38.346Z,11.43
2019-02-27T13:24:42.196Z,11.13
2019-02-27T13:26:46.303Z,13.47
2019-02-27T13:28:50.748Z,10.90
2019-02-27T13:30:55.779Z,13.80
2019-02-27T13:33:01.193Z,10.50
2019-02-27T13:35:05.896Z,10.97
2019-02-27T13:37:10.443Z,9.70
2019-02-27T13:39:14.439Z,13.20
2019-02-27T13:41:18.854Z,12.10
2019-02-27T13:43:24.462Z,11.13
2019-02-27T13:45:29.119Z,13.30
2019-02-27T13:47:33.525Z,9.87
2019-02-27T13:49:37.831Z,11.00
2019-02-27T13:51:42.163Z,9.03
2019-02-27T13:53:46.859Z,9.20
2019-02-27T13:55:50.716Z,11.30
2019-02-27T13:57:58.767Z,11.30
2019-02-27T14:00:01.228Z,12.03
2019-02-27T14:02:05.495Z,11.83
2019-02-27T14:04:09.382Z,9.07
2019-02-27T14:06:13.607Z,9.40
2019-02-27T14:08:17.544Z,10.80
2019-02-27T14:10:23.162Z,9.77
2019-02-27T14:12:27.092Z,11.57
2019-02-27T14:14:31.719Z,11.87
2019-02-27T14:16:36.771Z,12.80
2019-02-27T14:18:40.811Z,12.33
2019-02-27T14:20:45.647Z,11.63
2019-02-27T14:22:49.826Z,12.00
2019-02-27T14:24:54.871Z,12.00
2019-02-27T14:26:59.435Z,11.03
2019-02-27T14:29:04.148Z,10.87
2019-02-27T14:31:09.414Z,10.07
2019-02-27T14:33:14.385Z,11.40
2019-02-27T14:35:18.321Z,11.80
2019-02-27T14:37:22.695Z,9.77
2019-02-27T14:39:26.901Z,11.70
2019-02-27T14:41:32.624Z,12.93
2019-02-27T14:43:37.039Z,13.30
2019-02-27T14:45:41.431Z,11.13
2019-02-27T14:47:47.330Z,11.00
2019-02-27T14:49:52.544Z,13.87
2019-02-27T14:51:56.539Z,13.67
2019-02-27T14:54:00.923Z,11.70
2019-02-27T14:56:09.245Z,12.67
2019-02-27T14:58:10.751Z,13.60
2019-02-27T15:00:18.052Z,10.87
2019-02-27T15:02:22.919Z,11.80
2019-02-27T15:04:27.073Z,12.50
2019-02-27T15:06:31.917Z,11.83
2019-02-27T15:08:36.259Z,11.07
2019-02-27T15:10:41.294Z,11.93
2019-02-27T15:12:45.887Z,13.37
2019-02-27T15:14:50.019Z,12.17
2019-02-27T15:16:53.862Z,11.30
2019-02-27T15:18:57.705Z,12.33
2019-02-27T15:21:01.583Z,11.90
2019-02-27T15:23:06.263Z,12.90
2019-02-27T15:25:12.575Z,12.03
2019-02-27T15:27:16.409Z,12.87
2019-02-27T15:29:20.777Z,12.60
2019-02-27T15:31:24.842Z,10.90
2019-02-27T15:33:28.931Z,13.47
2019-02-27T15:35:33.758Z,10.40
2019-02-27T15:37:38.388Z,12.03
2019-02-27T15:39:42.743Z,12.43
2019-02-27T15:41:46.600Z,13.67
2019-02-27T15:43:59.638Z,12.93
2019-02-27T15:45:56.763Z,12.90
2019-02-27T15:48:00.683Z,12.50
2019-02-27T15:50:05.710Z,13.27
2019-02-27T15:52:10.067Z,14.73
2019-02-27T15:54:14.135Z,13.70
2019-02-27T15:56:17.983Z,13.20
2019-02-27T15:58:25.297Z,13.47
2019-02-27T16:00:28.812Z,13.90
2019-02-27T16:02:34.095Z,10.10
2019-02-27T16:04:39.383Z,12.00
2019-02-27T16:06:43.965Z,14.77
2019-02-27T16:08:48.030Z,14.27
2019-02-27T16:10:54.883Z,12.60
2019-02-27T16:13:01.065Z,14.73
2019-02-27T16:15:04.348Z,14.10
2019-02-27T16:17:08.210Z,13.43
2019-02-27T16:19:13.319Z,13.43
2019-02-27T16:21:17.951Z,13.87
2019-02-27T16:23:22.287Z,13.47
2019-02-27T16:25:26.500Z,11.20
2019-02-27T16:27:32.159Z,10.97
2019-02-27T16:29:35.931Z,10.10
2019-02-27T16:31:40.773Z,11.07
2019-02-27T16:33:45.659Z,11.70
2019-02-27T16:35:49.776Z,12.73
2019-02-27T16:37:57.597Z,12.73
2019-02-27T16:40:00.620Z,12.33
2019-02-27T16:42:06.115Z,12.90
2019-02-27T16:44:11.217Z,13.60
2019-02-27T16:46:18.663Z,14.40
2019-02-27T16:48:22.898Z,13.87
2019-02-27T16:50:28.171Z,13.03
2019-02-27T16:52:32.697Z,13.93
2019-02-27T16:54:36.821Z,14.77
2019-02-27T16:56:46.408Z,12.10
2019-02-27T16:58:47.082Z,12.83
2019-02-27T17:00:54.350Z,12.87
2019-02-27T17:02:57.517Z,13.80
2019-02-27T17:05:01.619Z,12.60
2019-02-27T17:07:06.115Z,12.20
2019-02-27T17:09:13.263Z,13.30
2019-02-27T17:11:17.011Z,11.87
2019-02-27T17:13:21.647Z,11.97
2019-02-27T17:15:26.123Z,12.43
2019-02-27T17:17:30.291Z,12.10
2019-02-27T17:19:36.578Z,11.33
2019-02-27T17:21:40.170Z,12.23
2019-02-27T17:23:46.585Z,11.73
2019-02-27T17:25:49.620Z,12.00
2019-02-27T17:27:54.200Z,12.47
2019-02-27T17:30:00.078Z,11.70
2019-02-27T17:32:04.544Z,11.70
2019-02-27T17:34:13.502Z,12.17
2019-02-27T17:36:15.682Z,13.50
2019-02-27T17:38:19.778Z,12.00
2019-02-27T17:40:24.114Z,10.80
2019-02-27T17:42:28.216Z,10.80
2019-02-27T17:44:35.308Z,10.50
2019-02-27T17:46:38.793Z,10.63
2019-02-27T17:48:43.342Z,11.07
2019-02-27T17:50:49.291Z,12.30
2019-02-27T17:52:53.543Z,11.40
2019-02-27T17:54:57.521Z,11.43
2019-02-27T17:57:01.762Z,11.10
2019-02-27T17:59:08.412Z,10.97
2019-02-27T18:01:14.232Z,11.37
2019-02-27T18:03:18.085Z,11.37
2019-02-27T18:05:22.276Z,11.93
2019-02-27T18:07:34.212Z,11.13
2019-02-27T18:09:34.183Z,11.33
2019-02-27T18:11:38.412Z,10.63
2019-02-27T18:13:42.263Z,11.10
2019-02-27T18:15:46.344Z,10.90
2019-02-27T18:17:51.231Z,9.07
2019-02-27T18:19:55.066Z,11.83
2019-02-27T18:22:02.616Z,10.10
2019-02-27T18:24:06.650Z,9.90
2019-02-27T18:26:12.315Z,9.40
2019-02-27T18:28:16.634Z,10.07
2019-02-27T18:30:20.652Z,10.10
2019-02-27T18:32:25.087Z,9.83
2019-02-27T18:34:29.270Z,11.10
2019-02-27T18:36:42.427Z,8.37
2019-02-27T18:38:39.595Z,11.07
2019-02-27T18:40:43.888Z,8.80
2019-02-27T18:42:48.076Z,11.70
2019-02-27T18:44:52.087Z,9.10
2019-02-27T18:46:56.225Z,10.00
2019-02-27T18:49:01.813Z,9.80
2019-02-27T18:51:05.807Z,10.50
2019-02-27T18:53:13.065Z,11.33
2019-02-27T18:55:16.588Z,9.87
2019-02-27T18:57:20.463Z,9.70
2019-02-27T18:59:29.384Z,10.80
2019-02-27T19:01:30.231Z,11.53
2019-02-27T19:03:34.720Z,11.30
2019-02-27T19:05:42.101Z,10.50
2019-02-27T19:07:46.057Z,11.53
2019-02-27T19:09:50.114Z,12.03
2019-02-27T19:11:54.507Z,10.13
2019-02-27T19:14:02.457Z,11.70
2019-02-27T19:16:05.308Z,12.20
2019-02-27T19:18:09.422Z,11.50
2019-02-27T19:20:15.035Z,11.30
2019-02-27T19:22:19.391Z,11.20
2019-02-27T19:24:27.556Z,11.47
2019-02-27T19:26:29.676Z,11.47
2019-02-27T19:28:34.412Z,11.20
2019-02-27T19:30:41.831Z,12.10
2019-02-27T19:32:45.347Z,11.53
2019-02-27T19:34:49.305Z,11.07
2019-02-27T19:36:54.120Z,11.40
2019-02-27T19:38:58.715Z,10.30
2019-02-27T19:41:04.154Z,10.63
2019-02-27T19:43:09.235Z,12.40
2019-02-27T19:45:13.938Z,11.20
2019-02-27T19:47:18.641Z,10.33
2019-02-27T19:49:23.235Z,9.30
2019-02-27T19:51:27.239Z,10.20
2019-02-27T19:53:31.803Z,9.20
2019-02-27T19:55:35.823Z,9.63
2019-02-27T19:57:42.486Z,9.73
2019-02-27T19:59:46.055Z,9.07
2019-02-27T20:01:50.261Z,11.63
2019-02-27T20:03:54.487Z,8.07
2019-02-27T20:05:58.910Z,9.63
2019-02-27T20:08:03.455Z,12.53
2019-02-27T20:10:09.203Z,8.77
2019-02-27T20:12:15.810Z,12.47
2019-02-27T20:14:19.035Z,12.67
2019-02-27T20:16:23.812Z,10.17
2019-02-27T20:18:28.112Z,12.13
2019-02-27T20:20:32.113Z,13.23
2019-02-27T20:22:36.975Z,9.63
2019-02-27T20:24:43.003Z,12.83
2019-02-27T20:26:47.328Z,8.50
2019-02-27T20:28:51.730Z,11.90
2019-02-27T20:30:56.027Z,12.20
2019-02-27T20:33:02.545Z,10.77
2019-02-27T20:35:07.324Z,11.73
2019-02-27T20:37:11.427Z,12.10
2019-02-27T20:39:16.269Z,11.00
2019-02-27T20:41:20.621Z,9.67
2019-02-27T20:43:29.099Z,11.70
2019-02-27T20:45:32.067Z,12.57
2019-02-27T20:47:36.295Z,11.17
2019-02-27T20:49:40.427Z,12.40
2019-02-27T20:51:44.869Z,9.20
2019-02-27T20:53:49.071Z,11.70
2019-02-27T20:55:53.687Z,9.40
2019-02-27T20:57:57.819Z,9.80
2019-02-27T21:00:03.355Z,11.30
2019-02-27T21:02:07.843Z,10.77
2019-02-27T21:04:12.257Z,12.97
2019-02-27T21:06:16.944Z,12.47
2019-02-27T21:08:21.403Z,13.00
2019-02-27T21:10:25.450Z,11.37
2019-02-27T21:12:29.312Z,7.20
2019-02-27T21:14:34.200Z,11.47
2019-02-27T21:16:42.848Z,12.57
2019-02-27T21:18:48.658Z,11.50
2019-02-27T21:20:53.835Z,11.50
2019-02-27T21:22:59.850Z,11.07
2019-02-27T21:25:03.811Z,12.40
2019-02-27T21:27:08.531Z,11.97
2019-02-27T21:29:12.852Z,12.30
2019-02-27T21:31:17.454Z,8.10
2019-02-27T21:33:21.564Z,11.67
2019-02-27T21:35:29.679Z,11.30
2019-02-27T21:37:31.990Z,10.73
2019-02-27T21:39:35.854Z,7.40
2019-02-27T21:41:42.345Z,11.20
2019-02-27T21:43:47.556Z,12.60
2019-02-27T21:45:54.242Z,11.53
2019-02-27T21:48:01.820Z,9.30
2019-02-27T21:50:07.245Z,7.43
2019-02-27T21:52:11.340Z,8.97
2019-02-27T21:54:16.091Z,11.40
2019-02-27T21:56:20.979Z,10.83
2019-02-27T21:58:25.055Z,11.80
2019-02-27T22:00:29.532Z,9.70
2019-02-27T22:02:33.436Z,11.03
2019-02-27T22:04:37.736Z,12.10
2019-02-27T22:06:42.743Z,10.33
2019-02-27T22:08:47.058Z,8.87
2019-02-27T22:10:53.560Z,7.57
2019-02-27T22:12:57.252Z,12.43
2019-02-27T22:15:01.283Z,12.37
2019-02-27T22:17:06.014Z,9.60
2019-02-27T22:19:10.272Z,12.23
2019-02-27T22:21:14.696Z,12.20
2019-02-27T22:23:18.643Z,11.03
2019-02-27T22:25:23.430Z,7.03
2019-02-27T22:27:27.266Z,10.03
2019-02-27T22:29:32.015Z,11.43
2019-02-27T22:31:40.212Z,10.60
2019-02-27T22:33:42.995Z,12.67
2019-02-27T22:35:46.887Z,10.67
2019-02-27T22:37:52.678Z,12.47
2019-02-27T22:39:58.144Z,13.80
2019-02-27T22:42:02.515Z,11.40
2019-02-27T22:44:06.679Z,9.37
2019-02-27T22:46:13.464Z,9.63
2019-02-27T22:48:16.371Z,12.70
2019-02-27T22:50:20.703Z,11.50
2019-02-27T22:52:24.575Z,11.70
2019-02-27T22:54:28.481Z,9.20
2019-02-27T22:56:32.975Z,12.13
2019-02-27T22:58:37.570Z,13.50
2019-02-27T23:01:06.456Z,11.53
2019-02-27T23:03:10.791Z,13.03
2019-02-27T23:05:15.056Z,14.10
2019-02-27T23:07:21.253Z,10.57
2019-02-27T23:09:26.489Z,9.63
2019-02-27T23:11:30.872Z,8.27
2019-02-27T23:13:35.059Z,13.43
2019-02-27T23:15:39.851Z,10.50
2019-02-27T23:17:44.021Z,13.17
2019-02-27T23:19:48.435Z,12.60
2019-02-27T23:21:52.347Z,11.53
2019-02-27T23:23:56.340Z,12.63
2019-02-27T23:26:00.935Z,9.70
2019-02-27T23:28:05.242Z,14.30
2019-02-27T23:30:14.812Z,12.10
2019-02-27T23:32:15.535Z,14.27
2019-02-27T23:34:19.683Z,12.87
2019-02-27T23:36:24.188Z,10.87
2019-02-27T23:38:28.474Z,9.87
2019-02-27T23:40:32.425Z,9.83
2019-02-27T23:42:36.575Z,9.80
2019-02-27T23:44:41.176Z,14.17
2019-02-27T23:46:49.595Z,13.70
2019-02-27T23:48:51.063Z,14.80
2019-02-27T23:50:55.395Z,13.73
2019-02-27T23:52:59.467Z,17.53
2019-02-27T23:55:03.403Z,16.23
2019-02-27T23:57:07.722Z,13.60
2019-02-27T23:59:13.086Z,16.67
